Pageton, West Virginia
Current Conditions -  °F | °C
As of 10:52 AM on Wednesday 28 Jan 2015 (Local Time) from KBLF Reporting Station
Overcast Overcast  
Wind Chill: 15°   Ceiling: 1000
Heat Index: 21°   Visibility: 10mi
Dew Point: 13°   Wind: 5mph
Humidity: 71%   Direction: 300°WNW
Pressure: 30.22"   Gusts: NA
Location:  37.35°N, 81.47°W
Report Text: KBLF 281552Z AUTO 30004KT 10SM OVC010 M06/M11 A3022 RMK AO2 SLP270 T10611106
Loading
Personal Weather Stations






























Interactive Weather Map New forecast layout! Learn more

10-Day Weather Forecast

Advertisements
Track Severe Weather on mobile